Terminal Aerodrome Forecast
Issued by NWS

Home | Current Version | Previous Version | Text Only | Print | Product List | Glossary On
Versions: 1 2 3 4 5 6 7 8 9 10 11 12 13 14 15 16 17 18 19 20 21 22 23 24 25 26 27 28
000
FTAK31 PANC 282334
TAFAEN
TAF
PAEN 282334Z 2900/2924 01018KT P6SM BKN060
     FM290600 02010KT P6SM BKN120
     FM291700 02015KT P6SM VCSH BKN070
     FM291900 03015G22KT P6SM BKN060=

USA.gov is the U.S. government's official web portal to all federal, state and local government web resources and services.